KLSF/LSF METAR and TAF weather

Enter ICAO airport designator
Station Type Date Time Source
KLSF METAR 2021/07/30 22:56 UTC NOAA

KLSF 302256Z AUTO 25003KT 10SM CLR 33/24 A2995 RMK AO2 SLP145 T03270236


Station Type Date Time Source
KLSF Decoded METAR 2021/07/30 22:56 UTC NOAA

Fort Benning, GA, United States (KLSF) 32-20N 084-50W 130M
Jul 30, 2021 - 06:56 PM EDT / 2021.07.30 2256 UTC
Wind: from the WSW (250 degrees) at 3 MPH (3 KT):0
Visibility: 10 mile(s):0
Sky conditions: clear
Temperature: 90.9 F (32.7 C)
Heat index: 100.6 F (38.1 C):1
Dew Point: 74.5 F (23.6 C)
Relative Humidity: 58%
Pressure (altimeter): 29.95 in. Hg (1014 hPa)
ob: KLSF 302256Z AUTO 25003KT 10SM CLR 33/24 A2995 RMK AO2 SLP145 T03270236
cycle: 23

Station Type Date Time Source
KLSF TAF 2021/07/30 21:06 UTC NOAA

TAF KLSF 302100Z 3021/0103 VRB06KT 9999 FEW060 QNH2994INS TX37/3022Z TN24/3108Z LAST NO
AMDS AFT 3103 NEXT 0213

Example: see airport list